KBYI/BYI METAR and TAF weather

Enter ICAO airport designator
Station Type Date Time Source
KBYI METAR 2019/04/25 21:53 UTC NOAA

KBYI 252153Z AUTO 28004KT 10SM CLR 20/M02 A3009 RMK AO2 SLP168 T02001017


Station Type Date Time Source
KBYI Decoded METAR 2019/04/25 21:53 UTC NOAA

BURLEY MUNICIPAL AIRPORT, ID, United States (KBYI) 42-33N 113-46W 1264M
Apr 25, 2019 - 05:53 PM EDT / 2019.04.25 2153 UTC
Wind: from the W (280 degrees) at 5 MPH (4 KT):0
Visibility: 10 mile(s):0
Sky conditions: clear
Temperature: 68.0 F (20.0 C)
Dew Point: 28.9 F (-1.7 C)
Relative Humidity: 23%
Pressure (altimeter): 30.09 in. Hg (1018 hPa)
ob: KBYI 252153Z AUTO 28004KT 10SM CLR 20/M02 A3009 RMK AO2 SLP168 T02001017
cycle: 22

Station Type Date Time Source
KBYI TAF 2019/04/25 18:40 UTC NOAA

TAF KBYI 251738Z 2518/2618 VRB06KT P6SM FEW250
FM260500 20007KT P6SM VCSH SCT070 BKN120
FM261700 26015G25KT P6SM FEW090 BKN130

Example: see airport list